Time;durP1;ratioP1;P1;durP2;ratioP2;P2;SDS_P1;SDS_P2;PMS_P1;PMS_P2;Temp;Humidity;BMP_temperature;BMP_pressure;BME280_temperature;BME280_humidity;BME280_pressure;Samples;Min_cycle;Max_cycle;Signal;HPM_P1;HPM_P2
2022/07/21 00:00:49;;;;;;;12.50;7.47;;;21.20;99.90;;;21.99;100.00;98350.63;5066199;28;20891;-88
2022/07/21 00:03:21;;;;;;;12.73;8.07;;;21.10;99.90;;;21.97;100.00;98356.19;5075230;28;20480;-87
2022/07/21 00:05:53;;;;;;;10.00;6.63;;;21.10;99.90;;;21.94;100.00;98363.88;5069997;28;20472;-87
2022/07/21 00:08:25;;;;;;;8.00;6.87;;;21.00;99.90;;;21.92;100.00;98364.13;5068122;28;20507;-87
2022/07/21 00:10:54;;;;;;;11.57;7.77;;;21.00;99.90;;;21.93;100.00;98370.28;5069646;28;20463;-86
2022/07/21 00:13:25;;;;;;;9.87;6.40;;;21.00;99.90;;;21.91;100.00;98373.19;5066115;28;20449;-87
2022/07/21 00:15:55;;;;;;;10.50;6.67;;;21.10;99.90;;;21.88;100.00;98380.84;5069832;28;20548;-87
2022/07/21 00:18:27;;;;;;;13.80;7.13;;;21.10;99.90;;;21.87;100.00;98373.88;5069841;28;20460;-87
2022/07/21 00:20:58;;;;;;;11.30;7.17;;;21.10;99.90;;;21.91;100.00;98375.03;5072421;28;20480;-86
2022/07/21 00:23:30;;;;;;;12.00;6.63;;;21.00;99.90;;;21.93;100.00;98372.94;5069262;28;20576;-86
2022/07/21 00:26:01;;;;;;;16.00;7.67;;;21.00;99.90;;;21.91;100.00;98365.19;5067142;28;20457;-87
2022/07/21 00:28:30;;;;;;;9.47;6.80;;;21.00;99.90;;;21.91;100.00;98372.38;5065855;28;20464;-87
2022/07/21 00:31:00;;;;;;;11.50;7.30;;;20.90;99.90;;;21.87;100.00;98380.03;5067809;28;20459;-87
2022/07/21 00:33:30;;;;;;;16.33;6.83;;;20.90;99.90;;;21.90;100.00;98384.88;5064357;28;20838;-87
2022/07/21 00:36:01;;;;;;;11.43;6.80;;;20.90;99.90;;;21.88;100.00;98376.31;5066936;28;20456;-87
2022/07/21 00:38:32;;;;;;;9.17;6.90;;;20.90;99.90;;;21.86;100.00;98364.31;5071528;28;20473;-88
2022/07/21 00:41:02;;;;;;;9.80;7.10;;;20.90;99.90;;;21.82;100.00;98368.53;5070019;28;20460;-87
2022/07/21 00:43:33;;;;;;;9.73;6.77;;;20.90;99.90;;;21.75;100.00;98370.59;5073405;28;20564;-87
2022/07/21 00:46:03;;;;;;;7.70;6.70;;;20.90;99.90;;;21.71;100.00;98374.81;5072926;28;20464;-88
2022/07/21 00:48:33;;;;;;;8.60;6.80;;;20.70;99.90;;;21.71;100.00;98370.28;5071461;28;20465;-87
2022/07/21 00:51:03;;;;;;;8.77;5.93;;;20.70;99.90;;;21.70;100.00;98368.66;5074684;28;20959;-87
2022/07/21 00:53:34;;;;;;;10.20;6.37;;;20.70;99.90;;;21.67;100.00;98382.47;5077397;28;20455;-87
2022/07/21 00:56:06;;;;;;;8.90;5.87;;;20.70;99.90;;;21.62;100.00;98378.97;5068512;28;20456;-87
2022/07/21 00:58:36;;;;;;;10.90;6.10;;;20.70;99.90;;;21.61;100.00;98380.03;5067842;28;20495;-87
2022/07/21 01:01:07;;;;;;;10.20;6.10;;;20.60;99.90;;;21.57;100.00;98372.53;5069000;28;20477;-88
2022/07/21 01:03:38;;;;;;;8.27;4.90;;;20.60;99.90;;;21.54;100.00;98375.69;5067917;28;20551;-87
2022/07/21 01:06:09;;;;;;;21.80;5.60;;;20.60;99.90;;;21.50;100.00;98369.25;5068915;28;20452;-87
2022/07/21 01:08:41;;;;;;;9.70;5.70;;;20.60;99.90;;;21.51;100.00;98381.53;5069102;28;20822;-87
2022/07/21 01:11:12;;;;;;;7.87;5.40;;;20.50;99.90;;;21.48;100.00;98390.00;5065871;28;20465;-87
2022/07/21 01:13:43;;;;;;;6.93;5.33;;;20.50;99.90;;;21.45;100.00;98385.16;5066939;28;20950;-87
2022/07/21 01:16:15;;;;;;;7.70;5.67;;;20.50;99.90;;;21.43;100.00;98376.63;5071379;28;20460;-87
2022/07/21 01:18:46;;;;;;;7.20;5.70;;;20.50;99.90;;;21.41;100.00;98380.59;5072445;28;20558;-87
2022/07/21 01:21:32;;;;;;;9.67;5.47;;;20.50;99.90;;;21.40;100.00;98384.31;5067170;28;20449;-87
2022/07/21 01:24:04;;;;;;;6.50;4.80;;;20.50;99.90;;;21.32;100.00;98388.19;5069133;28;20480;-87
2022/07/21 01:26:43;;;;;;;7.13;5.33;;;20.40;99.90;;;21.31;100.00;98389.25;5068195;28;20536;-87
2022/07/21 01:29:13;;;;;;;7.00;5.53;;;20.40;99.90;;;21.32;100.00;98393.50;5066564;28;21012;-87
2022/07/21 01:31:46;;;;;;;6.70;5.00;;;20.30;99.90;;;21.28;100.00;98397.72;5063782;28;20517;-87
2022/07/21 01:34:17;;;;;;;7.13;5.30;;;20.30;99.90;;;21.23;100.00;98395.00;5066514;28;20460;-87
2022/07/21 01:36:48;;;;;;;6.77;5.23;;;20.20;99.90;;;21.25;100.00;98400.06;5066218;28;20464;-87
2022/07/21 01:42:07;;;;;;;9.00;5.00;;;20.20;99.90;;;21.15;100.00;98402.59;5066269;28;20526;-87
2022/07/21 01:44:38;;;;;;;12.47;4.70;;;20.20;99.90;;;21.11;100.00;98404.94;5065882;28;20465;-87
2022/07/21 01:47:08;;;;;;;6.50;5.60;;;20.20;99.90;;;21.07;100.00;98409.09;5065145;28;20460;-87
2022/07/21 01:49:40;;;;;;;7.70;5.70;;;20.10;99.90;;;21.05;100.00;98405.91;5057798;28;20559;-87
2022/07/21 01:52:11;;;;;;;8.37;5.57;;;20.00;99.90;;;21.06;100.00;98405.66;5060347;28;20970;-87
2022/07/21 01:54:42;;;;;;;5.73;4.70;;;20.10;99.90;;;21.07;100.00;98403.78;5062314;28;20461;-87
2022/07/21 01:57:12;;;;;;;7.07;5.00;;;20.10;99.90;;;21.07;100.00;98404.59;5062590;28;20463;-87
2022/07/21 01:59:42;;;;;;;6.90;4.90;;;20.00;99.90;;;21.10;100.00;98406.00;5067030;28;20448;-87
2022/07/21 02:02:13;;;;;;;7.73;5.57;;;20.00;99.90;;;21.08;100.00;98403.56;5067855;28;20937;-86
2022/07/21 02:04:46;;;;;;;7.50;5.60;;;20.00;99.90;;;21.09;100.00;98407.03;5070083;28;20549;-88
2022/07/21 02:07:20;;;;;;;5.57;4.67;;;20.00;99.90;;;21.09;100.00;98405.19;5068448;28;20981;-87
2022/07/21 02:09:50;;;;;;;8.13;4.80;;;20.00;99.90;;;21.04;100.00;98405.09;5062383;28;20465;-87
2022/07/21 02:12:21;;;;;;;7.47;5.13;;;20.00;99.90;;;21.05;100.00;98397.91;5064384;28;20460;-87
2022/07/21 02:14:51;;;;;;;6.87;5.23;;;19.90;99.90;;;21.06;100.00;98391.56;5066308;28;20464;-87
2022/07/21 02:17:22;;;;;;;9.00;4.80;;;20.00;99.90;;;20.99;100.00;98394.41;5065888;28;20457;-87
2022/07/21 02:19:52;;;;;;;10.50;5.80;;;20.00;99.90;;;20.96;100.00;98394.09;5063166;28;20465;-87
2022/07/21 02:22:24;;;;;;;9.37;5.30;;;20.00;99.90;;;20.94;100.00;98396.16;5065093;28;20522;-87
2022/07/21 02:24:54;;;;;;;6.90;4.90;;;19.90;99.90;;;20.89;100.00;98404.09;5061629;28;20488;-87
2022/07/21 02:27:26;;;;;;;7.80;5.33;;;19.90;99.90;;;20.88;100.00;98397.97;5064237;28;21226;-87
2022/07/21 02:29:56;;;;;;;5.87;5.27;;;19.90;99.90;;;20.85;100.00;98397.63;5063664;28;20452;-86
2022/07/21 02:32:27;;;;;;;11.23;5.47;;;19.90;99.90;;;20.79;100.00;98398.63;5063922;28;20533;-86
2022/07/21 02:34:56;;;;;;;10.37;5.97;;;19.90;99.90;;;20.79;100.00;98398.63;5066888;28;20491;-87
2022/07/21 02:37:29;;;;;;;10.40;5.40;;;19.90;99.90;;;20.77;100.00;98400.69;5070039;28;20499;-87
2022/07/21 02:40:01;;;;;;;7.30;5.83;;;19.80;99.90;;;20.78;100.00;98391.69;5068887;28;20475;-87
2022/07/21 02:42:31;;;;;;;10.20;5.57;;;19.80;99.90;;;20.70;100.00;98394.75;5070363;28;20465;-87
2022/07/21 02:45:02;;;;;;;8.23;6.40;;;19.80;99.90;;;20.64;100.00;98385.09;5068451;28;20488;-87
2022/07/21 02:47:32;;;;;;;8.23;5.87;;;19.80;99.90;;;20.63;100.00;98386.13;5071360;28;20448;-87
2022/07/21 02:50:03;;;;;;;10.47;5.03;;;19.80;99.90;;;20.60;100.00;98395.41;5066670;28;21224;-87
2022/07/21 02:52:36;;;;;;;6.70;5.23;;;19.70;99.90;;;20.56;100.00;98394.28;5063754;28;20460;-86
2022/07/21 02:55:10;;;;;;;7.07;5.60;;;19.50;99.90;;;20.49;100.00;98397.09;5054175;28;20460;-87
2022/07/21 02:57:40;;;;;;;9.57;5.60;;;19.60;99.90;;;20.48;100.00;98400.78;5064286;28;20456;-87
2022/07/21 03:00:13;;;;;;;8.50;5.80;;;19.50;99.90;;;20.48;100.00;98402.63;5067004;28;20512;-87
2022/07/21 03:02:43;;;;;;;12.63;5.00;;;19.50;99.90;;;20.45;100.00;98400.47;5065642;28;20460;-86
2022/07/21 03:05:14;;;;;;;8.37;5.83;;;19.50;99.90;;;20.42;100.00;98393.78;5064778;28;20492;-86
2022/07/21 03:07:46;;;;;;;9.07;6.10;;;19.50;99.90;;;20.42;100.00;98399.09;5061811;28;21406;-86
2022/07/21 03:10:16;;;;;;;8.40;5.53;;;19.50;99.90;;;20.39;100.00;98399.59;5062681;28;20498;-84
2022/07/21 03:12:47;;;;;;;12.23;6.17;;;19.40;99.90;;;20.36;100.00;98396.63;5076927;28;20464;-92
2022/07/21 03:15:17;;;;;;;10.67;7.00;;;19.50;99.90;;;20.33;100.00;98405.06;5063679;28;20472;-89
2022/07/21 03:17:47;;;;;;;6.63;5.90;;;19.30;99.90;;;20.32;100.00;98404.25;5074083;28;20460;-88
2022/07/21 03:20:17;;;;;;;6.23;5.37;;;19.30;99.90;;;20.27;100.00;98398.84;5065327;28;20467;-87
2022/07/21 03:22:50;;;;;;;6.30;5.43;;;19.20;99.90;;;20.26;100.00;98396.41;5064866;28;20460;-87
2022/07/21 03:25:19;;;;;;;11.77;5.47;;;19.20;99.90;;;20.25;100.00;98400.13;5067105;28;20476;-87
2022/07/21 03:30:35;;;;;;;8.90;6.27;;;19.20;99.90;;;20.19;100.00;98404.53;5071437;28;20452;-87
2022/07/21 03:33:05;;;;;;;23.73;8.23;;;19.20;99.90;;;20.20;100.00;98402.69;5066289;28;20842;-87
2022/07/21 03:35:36;;;;;;;9.63;5.77;;;19.20;99.90;;;20.19;100.00;98403.72;5077360;28;20468;-87
2022/07/21 03:38:08;;;;;;;8.80;5.60;;;19.20;99.90;;;20.19;100.00;98407.19;5066411;28;20459;-88
2022/07/21 03:40:40;;;;;;;12.90;6.00;;;19.10;99.90;;;20.16;100.00;98404.22;5072569;28;21033;-88
2022/07/21 03:43:09;;;;;;;11.50;6.80;;;19.20;99.90;;;20.13;100.00;98399.38;5075830;28;20440;-88
2022/07/21 03:45:40;;;;;;;10.43;6.63;;;19.20;99.90;;;20.09;100.00;98399.06;5066004;28;20530;-84
2022/07/21 03:48:10;;;;;;;10.20;7.37;;;19.10;99.90;;;20.04;100.00;98406.91;5067858;28;20452;-88
2022/07/21 03:50:43;;;;;;;10.53;6.33;;;19.00;99.90;;;20.03;100.00;98402.66;5062801;28;20954;-85
2022/07/21 03:53:15;;;;;;;8.40;6.30;;;19.00;99.90;;;20.00;100.00;98411.09;5061700;28;20557;-85
2022/07/21 03:55:45;;;;;;;10.33;6.20;;;19.00;99.90;;;20.00;100.00;98416.41;5059939;28;20434;-85
2022/07/21 03:58:16;;;;;;;7.00;6.10;;;18.90;99.90;;;19.99;100.00;98420.13;5062562;28;20807;-84
2022/07/21 04:00:46;;;;;;;9.50;5.90;;;18.90;99.90;;;20.01;100.00;98407.41;5065296;28;20472;-84
2022/07/21 04:03:16;;;;;;;9.90;6.33;;;18.90;99.90;;;19.99;100.00;98423.56;5061696;28;20448;-85
2022/07/21 04:05:46;;;;;;;9.07;6.43;;;18.90;99.90;;;19.99;100.00;98430.75;5059946;28;20497;-85
2022/07/21 04:08:17;;;;;;;9.50;6.00;;;19.00;99.90;;;19.97;100.00;98424.84;5065290;28;20561;-85
2022/07/21 04:10:45;;;;;;;11.80;6.00;;;18.90;99.90;;;19.97;100.00;98422.19;5062676;28;20471;-85
2022/07/21 04:13:17;;;;;;;7.73;5.97;;;18.90;99.90;;;19.93;100.00;98421.06;5062316;28;20472;-92
2022/07/21 04:15:53;;;;;;;22.80;14.83;;;18.90;99.90;;;19.89;100.00;98410.09;5068616;28;20475;-85
2022/07/21 04:18:23;;;;;;;8.27;6.73;;;18.90;99.90;;;19.91;100.00;98415.19;5058338;28;20457;-85
2022/07/21 04:20:53;;;;;;;7.53;6.30;;;18.90;99.90;;;19.90;100.00;98413.56;5059132;28;20537;-87
2022/07/21 04:23:25;;;;;;;7.67;6.10;;;18.90;99.90;;;19.92;100.00;98420.25;5066945;28;20456;-85
2022/07/21 04:25:56;;;;;;;12.43;5.97;;;18.90;99.90;;;19.94;100.00;98427.97;5062720;28;20503;-85
2022/07/21 04:28:28;;;;;;;11.70;6.20;;;18.90;99.90;;;19.88;100.00;98424.44;5058239;28;20542;-92
2022/07/21 04:30:59;;;;;;;12.10;7.20;;;18.90;99.90;;;19.88;100.00;98423.63;5066154;28;20561;-85
2022/07/21 04:33:29;;;;;;;14.20;6.10;;;18.90;99.90;;;19.81;100.00;98420.31;5055869;28;20903;-84
2022/07/21 04:36:06;;;;;;;6.23;5.03;;;18.80;99.90;;;19.78;100.00;98434.06;5066687;28;20456;-86
2022/07/21 04:38:38;;;;;;;11.60;6.90;;;18.80;99.90;;;19.66;100.00;98430.63;5075514;28;20967;-86
2022/07/21 04:41:08;;;;;;;6.90;5.23;;;18.70;99.90;;;19.65;100.00;98440.41;5072717;28;20444;-86
2022/07/21 04:43:38;;;;;;;6.97;6.03;;;18.70;99.90;;;19.63;100.00;98425.78;5071022;28;20479;-87
2022/07/21 04:46:11;;;;;;;8.73;6.72;;;18.80;99.90;;;19.59;100.00;98436.88;5068557;28;20478;-86
2022/07/21 04:48:44;;;;;;;16.80;6.40;;;18.80;99.90;;;19.62;100.00;98437.44;5070526;28;20201;-86
2022/07/21 04:51:14;;;;;;;9.20;6.07;;;18.80;99.90;;;19.58;100.00;98435.25;5071952;28;20461;-86
2022/07/21 04:53:45;;;;;;;26.00;7.30;;;18.80;99.90;;;19.62;100.00;98435.59;5073385;28;20440;-86
2022/07/21 04:56:15;;;;;;;12.43;6.83;;;18.80;99.90;;;19.63;100.00;98433.75;5072046;28;20499;-86
2022/07/21 04:58:45;;;;;;;11.30;6.27;;;18.80;99.90;;;19.66;100.00;98436.72;5073816;28;20452;-86
2022/07/21 05:01:17;;;;;;;12.80;6.60;;;18.80;99.90;;;19.67;100.00;98437.53;5075074;28;20472;-86
2022/07/21 05:03:49;;;;;;;16.80;8.03;;;18.80;99.90;;;19.73;100.00;98439.25;5073182;28;20458;-86
2022/07/21 05:06:19;;;;;;;10.53;6.83;;;18.90;99.90;;;19.79;100.00;98435.66;5067012;28;20535;-86
2022/07/21 05:08:57;;;;;;;11.00;7.33;;;18.90;99.90;;;19.78;100.00;98437.53;5072247;28;20585;-86
2022/07/21 05:11:27;;;;;;;11.57;7.33;;;18.80;99.90;;;19.83;100.00;98434.94;5074268;28;20453;-86
2022/07/21 05:13:58;;;;;;;18.20;7.57;;;18.90;99.90;;;19.88;100.00;98443.03;5070618;28;20464;-86
2022/07/21 05:16:29;;;;;;;10.10;6.40;;;19.00;99.90;;;19.93;100.00;98437.78;5069431;28;20993;-87
2022/07/21 05:18:59;;;;;;;9.83;7.17;;;19.10;99.90;;;19.98;100.00;98429.94;5072613;28;20562;-87
2022/07/21 05:21:30;;;;;;;12.93;6.63;;;19.10;99.90;;;20.00;100.00;98437.66;5069674;28;20537;-86
2022/07/21 05:24:02;;;;;;;11.00;6.90;;;19.10;99.90;;;20.01;100.00;98439.25;5068899;28;20448;-86
2022/07/21 05:26:32;;;;;;;10.27;7.47;;;19.20;99.90;;;20.05;100.00;98432.44;5071095;28;20503;-87
2022/07/21 05:29:03;;;;;;;9.50;6.90;;;19.20;99.90;;;20.08;100.00;98439.94;5074697;28;20463;-87
2022/07/21 05:31:34;;;;;;;9.93;6.93;;;19.20;99.90;;;20.03;100.00;98443.28;5075524;28;20452;-87
2022/07/21 05:34:04;;;;;;;12.73;6.90;;;19.20;99.90;;;20.02;100.00;98438.22;5070755;28;20557;-87
2022/07/21 05:36:36;;;;;;;18.70;7.70;;;19.20;99.90;;;20.02;100.00;98436.38;5072608;28;20521;-87
2022/07/21 05:39:09;;;;;;;11.50;7.40;;;19.20;99.90;;;20.01;100.00;98437.41;5074259;28;20524;-87
2022/07/21 05:41:41;;;;;;;9.10;6.20;;;19.10;99.90;;;20.04;100.00;98444.09;5073048;28;20460;-87
2022/07/21 05:44:13;;;;;;;9.73;7.83;;;19.20;99.90;;;20.04;100.00;98444.09;5073902;28;20432;-87
2022/07/21 05:46:44;;;;;;;9.67;6.90;;;19.10;99.90;;;20.06;100.00;98447.34;5069374;28;20549;-87
2022/07/21 05:49:16;;;;;;;10.20;7.90;;;19.10;99.90;;;20.01;100.00;98456.00;5071881;28;20436;-87
2022/07/21 05:51:47;;;;;;;11.20;8.20;;;19.20;99.90;;;20.02;100.00;98462.94;5073413;28;20468;-87
2022/07/21 05:54:20;;;;;;;9.37;7.80;;;19.20;99.90;;;20.06;100.00;98457.97;5070555;28;20582;-87
2022/07/21 05:56:51;;;;;;;11.83;7.87;;;19.20;99.90;;;20.10;100.00;98443.94;5066597;28;20519;-85
2022/07/21 05:59:23;;;;;;;10.20;7.70;;;19.20;99.90;;;20.16;100.00;98446.72;5065100;28;20467;-86
2022/07/21 06:01:54;;;;;;;11.07;7.80;;;19.20;99.90;;;20.15;100.00;98448.56;5064524;28;20465;-86
2022/07/21 06:04:25;;;;;;;10.27;7.70;;;19.10;99.90;;;20.20;100.00;98459.25;5066597;28;20456;-85
2022/07/21 06:06:55;;;;;;;9.77;7.77;;;19.20;99.90;;;20.25;100.00;98461.19;5067906;28;20523;-86
2022/07/21 06:09:28;;;;;;;14.93;7.50;;;19.30;99.90;;;20.28;100.00;98458.91;5065147;28;20455;-86
2022/07/21 06:11:57;;;;;;;12.67;7.87;;;19.40;99.90;;;20.30;100.00;98467.47;5065807;28;20441;-85
2022/07/21 06:14:28;;;;;;;8.87;7.30;;;19.40;99.90;;;20.32;100.00;98472.53;5064482;28;20449;-86
2022/07/21 06:16:59;;;;;;;12.93;8.27;;;19.40;99.90;;;20.29;100.00;98465.03;5062885;28;20920;-86
2022/07/21 06:19:30;;;;;;;8.63;7.40;;;19.50;99.90;;;20.26;100.00;98468.94;5064376;28;20440;-86
2022/07/21 06:22:02;;;;;;;9.97;8.10;;;19.30;99.90;;;20.29;100.00;98457.06;5062810;28;20970;-86
2022/07/21 06:24:32;;;;;;;12.90;8.87;;;19.40;99.90;;;20.34;100.00;98465.91;5065160;28;20472;-86
2022/07/21 06:27:03;;;;;;;10.63;7.70;;;19.50;99.90;;;20.37;100.00;98465.47;5065206;28;20488;-86
2022/07/21 06:29:35;;;;;;;15.17;8.07;;;19.70;99.90;;;20.39;100.00;98471.34;5067172;28;20460;-85
2022/07/21 06:32:04;;;;;;;12.47;7.30;;;19.50;99.90;;;20.43;100.00;98469.00;5067391;28;20445;-86
2022/07/21 06:34:35;;;;;;;15.70;7.87;;;19.50;99.90;;;20.51;100.00;98472.06;5063268;28;21022;-86
2022/07/21 06:37:05;;;;;;;12.27;7.23;;;19.70;99.90;;;20.55;100.00;98477.69;5064894;28;20466;-86
2022/07/21 06:39:41;;;;;;;15.70;8.10;;;19.80;99.90;;;20.59;100.00;98484.97;5065743;28;20464;-86
2022/07/21 06:42:12;;;;;;;13.70;6.90;;;19.80;99.90;;;20.61;100.00;98490.06;5067937;28;20451;-86
2022/07/21 06:44:43;;;;;;;12.90;7.97;;;19.90;99.90;;;20.62;100.00;98485.53;5067216;28;20460;-86
2022/07/21 06:47:21;;;;;;;14.37;8.00;;;19.80;99.90;;;20.67;100.00;98486.41;5069634;28;20457;-85
2022/07/21 06:49:52;;;;;;;10.07;7.10;;;20.00;99.90;;;20.67;100.00;98485.59;5069626;28;20449;-85
2022/07/21 06:52:23;;;;;;;10.33;7.73;;;19.90;99.90;;;20.74;100.00;98491.56;5068687;28;20452;-85
2022/07/21 06:54:55;;;;;;;9.37;7.40;;;19.90;99.90;;;20.81;100.00;98482.41;5074823;28;20525;-86
2022/07/21 06:57:25;;;;;;;12.30;8.07;;;20.10;99.90;;;20.85;100.00;98480.06;5067722;28;20503;-85
2022/07/21 07:00:20;;;;;;;13.70;8.17;;;20.10;99.90;;;20.88;100.00;98472.41;5069244;28;20474;-86
2022/07/21 07:02:51;;;;;;;12.90;7.37;;;20.10;99.90;;;20.95;100.00;98477.56;5066761;28;20456;-87
2022/07/21 07:05:22;;;;;;;10.73;7.20;;;20.20;99.90;;;20.96;100.00;98482.63;5066305;28;20576;-86
2022/07/21 07:07:52;;;;;;;12.57;8.10;;;20.20;99.90;;;21.01;100.00;98480.06;5064439;28;20476;-86
2022/07/21 07:10:24;;;;;;;11.03;6.60;;;20.20;99.90;;;21.07;100.00;98483.59;5069198;28;20490;-85
2022/07/21 07:12:55;;;;;;;10.70;7.63;;;20.30;99.90;;;21.11;100.00;98482.09;5073478;28;20441;-86
2022/07/21 07:15:46;;;;;;;9.10;6.33;;;20.40;99.90;;;21.15;100.00;98488.53;5067538;28;20539;-86
2022/07/21 07:18:17;;;;;;;10.80;7.10;;;20.50;99.90;;;21.17;100.00;98493.63;5069106;28;20464;-86
2022/07/21 07:20:47;;;;;;;12.17;6.53;;;20.50;99.90;;;21.10;100.00;98485.81;5067921;28;21064;-86
2022/07/21 07:23:17;;;;;;;9.50;7.00;;;20.50;99.90;;;21.11;100.00;98484.75;5067391;28;20467;-87
2022/07/21 07:25:50;;;;;;;9.03;6.53;;;20.50;99.90;;;21.15;100.00;98493.84;5069082;28;20518;-86
2022/07/21 07:28:22;;;;;;;12.23;7.47;;;20.50;99.90;;;21.18;100.00;98498.69;5066209;28;20463;-86
2022/07/21 07:30:52;;;;;;;9.00;7.03;;;20.50;99.90;;;21.18;100.00;98498.69;5066872;28;20870;-86
2022/07/21 07:33:24;;;;;;;13.30;7.23;;;20.50;99.90;;;21.27;100.00;98504.41;5068176;28;20554;-86
2022/07/21 07:35:57;;;;;;;8.40;5.97;;;20.50;99.90;;;21.31;100.00;98502.88;5067957;28;20440;-86
2022/07/21 07:38:28;;;;;;;11.30;5.57;;;20.60;99.90;;;21.31;100.00;98502.88;5065973;28;20495;-85
2022/07/21 07:40:59;;;;;;;6.80;4.67;;;20.60;99.90;;;21.25;100.00;98501.97;5065518;28;20823;-85
2022/07/21 07:43:29;;;;;;;5.30;4.20;;;20.60;99.90;;;21.27;100.00;98505.22;5063773;28;20494;-86
2022/07/21 07:46:00;;;;;;;10.10;5.07;;;20.60;99.90;;;21.20;100.00;98488.63;5063096;28;20488;-86
2022/07/21 07:48:31;;;;;;;5.50;4.07;;;20.50;99.90;;;21.30;100.00;98491.41;5065006;28;20857;-86
2022/07/21 07:51:00;;;;;;;5.63;4.33;;;20.60;99.90;;;21.34;100.00;98499.72;5065047;28;20542;-86
2022/07/21 07:53:32;;;;;;;7.93;4.90;;;20.70;99.90;;;21.35;100.00;98494.13;5064592;28;20471;-87
2022/07/21 07:56:02;;;;;;;6.47;5.33;;;20.60;99.90;;;21.38;100.00;98495.53;5065152;28;20436;-85
2022/07/21 07:58:34;;;;;;;7.30;5.33;;;20.60;99.90;;;21.48;100.00;98498.31;5063824;28;20464;-86
2022/07/21 08:01:05;;;;;;;6.40;4.60;;;20.80;99.90;;;21.51;100.00;98506.63;5064516;28;20476;-86
2022/07/21 08:03:37;;;;;;;6.70;4.10;;;20.80;99.90;;;21.54;100.00;98502.66;5067101;28;21269;-86
2022/07/21 08:06:08;;;;;;;5.47;4.27;;;20.90;99.90;;;21.64;100.00;98501.97;5063851;28;20546;-86
2022/07/21 08:08:40;;;;;;;4.27;3.60;;;20.90;99.90;;;21.69;100.00;98499.38;5064812;28;20942;-85
2022/07/21 08:11:13;;;;;;;6.47;3.73;;;21.00;99.90;;;21.71;100.00;98499.94;5065133;28;20465;-85
2022/07/21 08:13:43;;;;;;;4.40;3.80;;;21.10;99.90;;;21.69;100.00;98504.72;5064106;28;20468;-86
2022/07/21 08:16:15;;;;;;;4.23;3.80;;;21.00;99.90;;;21.71;100.00;98498.09;5064787;28;20441;-85
2022/07/21 08:18:46;;;;;;;5.70;3.40;;;21.10;99.90;;;21.78;100.00;98492.56;5065604;28;21063;-86
2022/07/21 08:21:18;;;;;;;4.97;3.17;;;21.20;99.90;;;21.82;100.00;98497.16;5064168;28;20464;-86
2022/07/21 08:23:49;;;;;;;5.07;3.30;;;21.10;99.90;;;21.84;100.00;98497.72;5064108;28;20542;-86
2022/07/21 08:26:21;;;;;;;4.43;3.60;;;21.10;99.90;;;21.90;100.00;98499.41;5063514;28;20526;-86
2022/07/21 08:28:52;;;;;;;4.23;3.33;;;21.20;99.90;;;21.93;100.00;98496.28;5063731;28;20488;-86
2022/07/21 08:31:23;;;;;;;4.97;3.60;;;21.30;99.90;;;21.96;100.00;98498.44;5064037;28;20826;-86
2022/07/21 08:33:54;;;;;;;5.67;3.03;;;21.30;99.90;;;21.95;100.00;98502.13;5065389;28;21027;-86
2022/07/21 08:36:25;;;;;;;6.47;3.00;;;21.30;99.90;;;21.95;100.00;98504.00;5064576;28;20475;-86
2022/07/21 08:38:56;;;;;;;8.00;3.60;;;21.40;99.90;;;21.97;100.00;98488.59;5064872;28;20982;-86
2022/07/21 08:41:28;;;;;;;7.23;3.30;;;21.40;99.90;;;22.01;100.00;98495.00;5064140;28;20471;-87
2022/07/21 08:44:00;;;;;;;5.50;3.17;;;21.40;99.90;;;22.10;100.00;98501.50;5062266;28;20517;-86
2022/07/21 08:46:34;;;;;;;4.70;3.30;;;21.50;99.90;;;22.18;100.00;98497.59;5064175;28;20898;-86
2022/07/21 08:49:06;;;;;;;6.03;3.13;;;21.60;99.90;;;22.25;100.00;98493.66;5064307;28;20461;-86
2022/07/21 08:51:37;;;;;;;4.47;3.00;;;21.60;99.90;;;22.30;100.00;98496.41;5063206;28;20474;-86
2022/07/21 08:54:07;;;;;;;4.60;3.80;;;21.60;99.90;;;22.39;100.00;98494.88;5064502;28;20461;-86
2022/07/21 08:56:38;;;;;;;4.97;3.83;;;21.70;99.90;;;22.44;100.00;98502.94;5062908;28;20513;-85
2022/07/21 08:59:10;;;;;;;6.73;3.30;;;21.80;99.90;;;22.51;100.00;98503.53;5063624;28;20465;-86
2022/07/21 09:01:41;;;;;;;6.77;3.80;;;21.90;99.90;;;22.54;100.00;98500.38;5062254;28;20505;-86
2022/07/21 09:04:34;;;;;;;5.10;4.60;;;21.90;99.90;;;22.52;100.00;98494.50;5063344;28;20551;-86
2022/07/21 09:07:11;;;;;;;4.80;4.10;;;21.90;99.70;;;22.56;98.97;98492.91;5062460;28;21031;-86
2022/07/21 09:09:41;;;;;;;6.83;4.10;;;22.00;99.60;;;22.56;96.43;98492.91;5063168;28;20464;-86
2022/07/21 09:12:12;;;;;;;6.47;4.40;;;21.90;98.90;;;22.55;97.41;98507.31;5064401;28;20471;-86
2022/07/21 09:14:43;;;;;;;5.17;3.60;;;22.00;99.20;;;22.58;95.36;98488.13;5062320;28;20433;-86
2022/07/21 09:17:19;;;;;;;5.90;4.40;;;22.00;98.70;;;22.60;94.02;98490.53;5062575;28;21014;-85
2022/07/21 09:19:51;;;;;;;6.77;3.83;;;22.10;98.50;;;22.63;97.02;98491.91;5062093;28;20459;-86
2022/07/21 09:22:21;;;;;;;6.17;4.33;;;22.10;99.00;;;22.67;98.74;98480.50;5062193;28;20464;-86
2022/07/21 09:24:55;;;;;;;5.07;3.90;;;22.10;99.30;;;22.67;98.34;98493.03;5064030;28;20453;-86
2022/07/21 09:27:28;;;;;;;10.27;3.90;;;22.00;99.20;;;22.69;98.09;98482.94;5061862;28;20482;-86
2022/07/21 09:30:02;;;;;;;5.50;4.03;;;22.10;99.30;;;22.73;98.69;98489.38;5063321;28;20463;-87
2022/07/21 09:32:33;;;;;;;8.43;5.03;;;22.10;99.30;;;22.79;99.19;98489.16;5062483;28;20469;-86
2022/07/21 09:35:10;;;;;;;11.23;4.30;;;22.30;99.40;;;22.87;96.43;98486.00;5064368;28;20472;-85
2022/07/21 09:37:41;;;;;;;5.90;4.10;;;22.30;99.10;;;22.94;93.44;98486.56;5071815;28;20912;-85
2022/07/21 09:40:14;;;;;;;7.97;5.40;;;22.40;98.20;;;22.95;92.80;98488.19;5067763;28;20461;-86
2022/07/21 09:42:52;;;;;;;16.23;5.27;;;22.30;98.20;;;23.02;92.33;98487.97;5068053;28;20452;-85
2022/07/21 09:45:24;;;;;;;7.17;5.17;;;22.40;98.20;;;23.10;92.51;98489.38;5068267;28;20457;-85
2022/07/21 09:47:54;;;;;;;7.90;4.80;;;22.50;98.20;;;23.12;90.87;98488.03;5064587;28;20550;-86
2022/07/21 09:50:25;;;;;;;6.73;4.53;;;22.50;97.80;;;23.21;89.88;98491.84;5064276;28;20449;-86
2022/07/21 09:53:02;;;;;;;6.33;4.87;;;22.60;97.60;;;23.31;91.19;98486.56;5067488;28;20460;-86
2022/07/21 09:55:32;;;;;;;7.50;4.57;;;22.70;97.80;;;23.38;90.20;98481.81;5066880;28;20547;-86
2022/07/21 09:58:03;;;;;;;7.80;4.60;;;22.80;97.80;;;23.48;90.02;98487.25;5061096;28;20465;-83
2022/07/21 10:00:35;;;;;;;6.10;4.37;;;22.70;98.30;;;23.53;87.62;98489.13;5061227;28;20852;-82
2022/07/21 10:03:06;;;;;;;11.40;4.60;;;22.80;97.30;;;23.62;88.00;98486.75;5061955;28;20448;-83
2022/07/21 10:05:38;;;;;;;15.07;5.20;;;22.90;97.40;;;23.62;85.45;98484.91;5062625;28;21126;-83
2022/07/21 10:08:08;;;;;;;7.40;4.60;;;22.90;96.80;;;23.65;84.98;98497.72;5061775;28;20557;-84
2022/07/21 10:10:38;;;;;;;9.90;5.17;;;23.00;96.80;;;23.63;83.79;98494.53;5062542;28;20963;-84
2022/07/21 10:13:29;;;;;;;6.10;5.00;;;23.00;96.40;;;23.62;84.03;98503.59;5068882;28;20529;-85
2022/07/21 10:16:00;;;;;;;6.53;4.43;;;23.00;96.40;;;23.66;84.37;98498.53;5072643;28;20467;-85
2022/07/21 10:18:39;;;;;;;9.07;4.50;;;23.00;96.60;;;23.58;84.57;98501.69;5066680;28;20460;-86
2022/07/21 10:21:25;;;;;;;6.30;4.97;;;22.90;96.50;;;23.64;84.51;98498.00;5067071;28;20448;-85
2022/07/21 10:23:56;;;;;;;8.03;4.73;;;23.00;96.40;;;23.66;85.29;98494.00;5066349;28;20447;-86
2022/07/21 10:26:26;;;;;;;6.23;5.23;;;23.10;96.60;;;23.75;85.90;98500.44;5066123;28;20444;-84
2022/07/21 10:28:58;;;;;;;7.80;5.37;;;23.20;96.80;;;23.82;85.23;98492.19;5065962;28;20484;-86
2022/07/21 10:31:28;;;;;;;5.90;4.57;;;23.20;96.80;;;23.81;84.20;98496.72;5065658;28;20448;-85
2022/07/21 10:34:36;;;;;;;11.30;6.20;;;23.20;96.30;;;23.75;81.55;98496.97;5066341;28;20547;-85